sensor_id;sensor_type;location;lat;lon;timestamp;pressure;altitude;pressure_sealevel;temperature;humidity
8298;BME280;4187;42.778;23.242;2023-03-21T00:00:26;95139.66;;;11.96;84.66
8298;BME280;4187;42.778;23.242;2023-03-21T00:02:53;95125.88;;;11.84;86.42
8298;BME280;4187;42.778;23.242;2023-03-21T00:05:19;95142.59;;;11.67;88.33
8298;BME280;4187;42.778;23.242;2023-03-21T00:07:46;95148.31;;;11.37;91.17
8298;BME280;4187;42.778;23.242;2023-03-21T00:10:13;95147.94;;;11.14;93.12
8298;BME280;4187;42.778;23.242;2023-03-21T00:12:40;95140.22;;;11.03;93.82
8298;BME280;4187;42.778;23.242;2023-03-21T00:15:09;95137.97;;;10.91;95.19
8298;BME280;4187;42.778;23.242;2023-03-21T00:17:38;95136.19;;;10.91;95.02
8298;BME280;4187;42.778;23.242;2023-03-21T00:20:06;95138.22;;;10.97;94.46
8298;BME280;4187;42.778;23.242;2023-03-21T00:22:39;95136.91;;;11.01;94.66
8298;BME280;4187;42.778;23.242;2023-03-21T00:25:07;95139.25;;;11.04;94.07
8298;BME280;4187;42.778;23.242;2023-03-21T00:27:35;95143.56;;;11.05;93.27
8298;BME280;4187;42.778;23.242;2023-03-21T00:30:02;95140.63;;;10.91;94.97
8298;BME280;4187;42.778;23.242;2023-03-21T00:32:29;95128.69;;;10.69;95.86
8298;BME280;4187;42.778;23.242;2023-03-21T00:34:58;95138.94;;;10.72;96.13
8298;BME280;4187;42.778;23.242;2023-03-21T00:37:24;95139.41;;;10.67;96.58
8298;BME280;4187;42.778;23.242;2023-03-21T00:39:52;95134.94;;;10.68;97.04
8298;BME280;4187;42.778;23.242;2023-03-21T00:42:19;95106.94;;;10.57;96.64
8298;BME280;4187;42.778;23.242;2023-03-21T00:44:46;95132.25;;;10.77;96.06
8298;BME280;4187;42.778;23.242;2023-03-21T00:47:13;95130.06;;;10.73;94.54
8298;BME280;4187;42.778;23.242;2023-03-21T00:49:39;95129.44;;;10.79;94.43
8298;BME280;4187;42.778;23.242;2023-03-21T00:52:09;95133.13;;;10.68;94.62
8298;BME280;4187;42.778;23.242;2023-03-21T00:54:36;95125.75;;;10.72;94.42
8298;BME280;4187;42.778;23.242;2023-03-21T00:57:03;95049.69;;;10.23;94.23
8298;BME280;4187;42.778;23.242;2023-03-21T00:59:30;95114.44;;;10.62;94.73
8298;BME280;4187;42.778;23.242;2023-03-21T01:01:57;95122.56;;;10.68;93.97
8298;BME280;4187;42.778;23.242;2023-03-21T01:04:25;95122.72;;;10.67;93.69
8298;BME280;4187;42.778;23.242;2023-03-21T01:06:53;95046.63;;;10.00;94.96
8298;BME280;4187;42.778;23.242;2023-03-21T01:09:23;95116.44;;;10.33;96.00
8298;BME280;4187;42.778;23.242;2023-03-21T01:11:51;95114.31;;;10.36;96.46
8298;BME280;4187;42.778;23.242;2023-03-21T01:14:20;95116.94;;;10.36;96.46
8298;BME280;4187;42.778;23.242;2023-03-21T01:16:47;95113.47;;;10.36;96.68
8298;BME280;4187;42.778;23.242;2023-03-21T01:19:16;95114.75;;;10.32;96.56
8298;BME280;4187;42.778;23.242;2023-03-21T01:21:43;95107.50;;;10.34;96.49
8298;BME280;4187;42.778;23.242;2023-03-21T01:24:10;95104.19;;;10.32;96.18
8298;BME280;4187;42.778;23.242;2023-03-21T01:26:38;95099.88;;;10.31;96.75
8298;BME280;4187;42.778;23.242;2023-03-21T01:29:05;95092.72;;;10.23;96.17
8298;BME280;4187;42.778;23.242;2023-03-21T01:31:32;95113.13;;;10.21;95.69
8298;BME280;4187;42.778;23.242;2023-03-21T01:33:59;95106.94;;;10.12;95.07
8298;BME280;4187;42.778;23.242;2023-03-21T01:36:26;95108.59;;;10.04;95.93
8298;BME280;4187;42.778;23.242;2023-03-21T01:38:53;95101.25;;;10.07;96.00
8298;BME280;4187;42.778;23.242;2023-03-21T01:41:24;95102.50;;;10.03;96.50
8298;BME280;4187;42.778;23.242;2023-03-21T01:43:53;95102.38;;;10.05;97.22
8298;BME280;4187;42.778;23.242;2023-03-21T01:46:34;95111.38;;;9.75;95.94
8298;BME280;4187;42.778;23.242;2023-03-21T01:49:04;95104.63;;;9.53;98.13
8298;BME280;4187;42.778;23.242;2023-03-21T01:51:35;95101.91;;;9.26;100.00
8298;BME280;4187;42.778;23.242;2023-03-21T01:54:04;95102.22;;;9.14;100.00
8298;BME280;4187;42.778;23.242;2023-03-21T01:56:35;95105.25;;;9.09;100.00
8298;BME280;4187;42.778;23.242;2023-03-21T01:59:08;95100.97;;;8.98;100.00
8298;BME280;4187;42.778;23.242;2023-03-21T02:01:37;95105.25;;;8.90;100.00
8298;BME280;4187;42.778;23.242;2023-03-21T02:04:07;95101.13;;;8.78;100.00
8298;BME280;4187;42.778;23.242;2023-03-21T02:06:39;95098.75;;;8.75;100.00
8298;BME280;4187;42.778;23.242;2023-03-21T02:09:13;95096.81;;;8.77;100.00
8298;BME280;4187;42.778;23.242;2023-03-21T02:11:42;95067.03;;;8.57;100.00
8298;BME280;4187;42.778;23.242;2023-03-21T02:14:15;95095.72;;;8.79;100.00
8298;BME280;4187;42.778;23.242;2023-03-21T02:16:52;95060.81;;;8.58;100.00
8298;BME280;4187;42.778;23.242;2023-03-21T02:19:47;95095.16;;;8.85;100.00
8298;BME280;4187;42.778;23.242;2023-03-21T02:22:37;95088.25;;;8.94;100.00
8298;BME280;4187;42.778;23.242;2023-03-21T02:25:21;95085.59;;;8.94;100.00
8298;BME280;4187;42.778;23.242;2023-03-21T02:27:56;95067.19;;;8.84;100.00
8298;BME280;4187;42.778;23.242;2023-03-21T02:33:40;95095.03;;;8.77;100.00
8298;BME280;4187;42.778;23.242;2023-03-21T02:36:26;95100.56;;;8.74;100.00
8298;BME280;4187;42.778;23.242;2023-03-21T02:39:00;95092.81;;;8.73;100.00
8298;BME280;4187;42.778;23.242;2023-03-21T02:41:36;95096.25;;;8.73;100.00
8298;BME280;4187;42.778;23.242;2023-03-21T02:44:13;95094.06;;;8.78;100.00
8298;BME280;4187;42.778;23.242;2023-03-21T02:46:45;95091.13;;;8.81;100.00
8298;BME280;4187;42.778;23.242;2023-03-21T02:49:21;95089.34;;;8.72;100.00
8298;BME280;4187;42.778;23.242;2023-03-21T02:51:50;95095.19;;;8.76;100.00
8298;BME280;4187;42.778;23.242;2023-03-21T02:54:20;95088.38;;;8.64;100.00
8298;BME280;4187;42.778;23.242;2023-03-21T02:56:50;95096.97;;;8.56;100.00
8298;BME280;4187;42.778;23.242;2023-03-21T02:59:20;95091.00;;;8.64;100.00
8298;BME280;4187;42.778;23.242;2023-03-21T03:01:49;95094.88;;;8.69;100.00
8298;BME280;4187;42.778;23.242;2023-03-21T03:04:18;95094.03;;;8.69;100.00
8298;BME280;4187;42.778;23.242;2023-03-21T03:07:00;95085.59;;;8.65;100.00
8298;BME280;4187;42.778;23.242;2023-03-21T03:09:38;95086.28;;;8.58;100.00
8298;BME280;4187;42.778;23.242;2023-03-21T03:12:16;95097.94;;;8.65;100.00
8298;BME280;4187;42.778;23.242;2023-03-21T03:14:52;95009.00;;;8.11;100.00
8298;BME280;4187;42.778;23.242;2023-03-21T03:17:32;95085.06;;;8.62;100.00
8298;BME280;4187;42.778;23.242;2023-03-21T03:20:13;95068.28;;;8.43;100.00
8298;BME280;4187;42.778;23.242;2023-03-21T03:22:51;95094.59;;;8.63;100.00
8298;BME280;4187;42.778;23.242;2023-03-21T03:25:23;95094.75;;;8.61;100.00
8298;BME280;4187;42.778;23.242;2023-03-21T03:27:52;95094.03;;;8.40;100.00
8298;BME280;4187;42.778;23.242;2023-03-21T03:30:24;95099.63;;;8.26;100.00
8298;BME280;4187;42.778;23.242;2023-03-21T03:32:54;95100.06;;;8.21;100.00
8298;BME280;4187;42.778;23.242;2023-03-21T03:35:22;95098.31;;;8.01;100.00
8298;BME280;4187;42.778;23.242;2023-03-21T03:37:52;95065.72;;;7.73;100.00
8298;BME280;4187;42.778;23.242;2023-03-21T03:40:25;95099.09;;;7.82;100.00
8298;BME280;4187;42.778;23.242;2023-03-21T03:42:57;95062.47;;;7.51;100.00
8298;BME280;4187;42.778;23.242;2023-03-21T03:45:29;95098.50;;;7.69;100.00
8298;BME280;4187;42.778;23.242;2023-03-21T03:48:03;95091.00;;;7.65;100.00
8298;BME280;4187;42.778;23.242;2023-03-21T03:50:36;95092.00;;;7.73;100.00
8298;BME280;4187;42.778;23.242;2023-03-21T03:53:10;95091.63;;;7.78;100.00
8298;BME280;4187;42.778;23.242;2023-03-21T03:55:40;95092.16;;;7.81;100.00
8298;BME280;4187;42.778;23.242;2023-03-21T03:58:07;95096.22;;;7.86;100.00
8298;BME280;4187;42.778;23.242;2023-03-21T04:00:37;95069.44;;;7.61;100.00
8298;BME280;4187;42.778;23.242;2023-03-21T04:03:05;95095.88;;;7.79;100.00
8298;BME280;4187;42.778;23.242;2023-03-21T04:05:34;95094.34;;;7.67;100.00
8298;BME280;4187;42.778;23.242;2023-03-21T04:08:01;95083.66;;;7.59;100.00
8298;BME280;4187;42.778;23.242;2023-03-21T04:10:28;95094.81;;;7.51;100.00
8298;BME280;4187;42.778;23.242;2023-03-21T04:12:56;95093.19;;;7.60;100.00
8298;BME280;4187;42.778;23.242;2023-03-21T04:15:23;95093.19;;;7.60;100.00
8298;BME280;4187;42.778;23.242;2023-03-21T04:17:50;95082.31;;;7.44;100.00
8298;BME280;4187;42.778;23.242;2023-03-21T04:20:16;95056.53;;;7.18;100.00
8298;BME280;4187;42.778;23.242;2023-03-21T04:22:43;95066.38;;;7.05;100.00
8298;BME280;4187;42.778;23.242;2023-03-21T04:25:10;95076.28;;;7.02;100.00
8298;BME280;4187;42.778;23.242;2023-03-21T04:27:38;95069.81;;;7.06;100.00
8298;BME280;4187;42.778;23.242;2023-03-21T04:30:07;95078.34;;;7.19;100.00
8298;BME280;4187;42.778;23.242;2023-03-21T04:32:36;95072.81;;;7.22;100.00
8298;BME280;4187;42.778;23.242;2023-03-21T04:35:05;95061.75;;;7.18;100.00
8298;BME280;4187;42.778;23.242;2023-03-21T04:37:33;95078.41;;;7.08;100.00
8298;BME280;4187;42.778;23.242;2023-03-21T04:40:00;95086.72;;;6.92;100.00
8298;BME280;4187;42.778;23.242;2023-03-21T04:42:31;95089.81;;;6.66;100.00
8298;BME280;4187;42.778;23.242;2023-03-21T04:44:58;95093.28;;;6.34;100.00
8298;BME280;4187;42.778;23.242;2023-03-21T04:47:26;95091.63;;;6.22;100.00
8298;BME280;4187;42.778;23.242;2023-03-21T04:49:53;95089.84;;;6.23;100.00
8298;BME280;4187;42.778;23.242;2023-03-21T04:52:21;95083.59;;;6.03;100.00
8298;BME280;4187;42.778;23.242;2023-03-21T04:54:48;95096.31;;;6.19;100.00
8298;BME280;4187;42.778;23.242;2023-03-21T04:57:15;95104.19;;;6.19;100.00
8298;BME280;4187;42.778;23.242;2023-03-21T04:59:42;95100.81;;;6.17;100.00
8298;BME280;4187;42.778;23.242;2023-03-21T05:02:08;95102.03;;;6.13;100.00
8298;BME280;4187;42.778;23.242;2023-03-21T05:04:37;95092.41;;;6.13;100.00
8298;BME280;4187;42.778;23.242;2023-03-21T05:07:04;95105.34;;;6.26;100.00
8298;BME280;4187;42.778;23.242;2023-03-21T05:09:31;95105.16;;;6.38;100.00
8298;BME280;4187;42.778;23.242;2023-03-21T05:11:58;95100.25;;;6.56;100.00
8298;BME280;4187;42.778;23.242;2023-03-21T05:14:26;95106.16;;;6.69;100.00
8298;BME280;4187;42.778;23.242;2023-03-21T05:16:53;95104.31;;;6.81;100.00
8298;BME280;4187;42.778;23.242;2023-03-21T05:19:22;95106.59;;;6.95;100.00
8298;BME280;4187;42.778;23.242;2023-03-21T05:21:51;95103.81;;;7.07;100.00
8298;BME280;4187;42.778;23.242;2023-03-21T05:24:19;95110.66;;;7.19;100.00
8298;BME280;4187;42.778;23.242;2023-03-21T05:26:47;95104.63;;;7.29;100.00
8298;BME280;4187;42.778;23.242;2023-03-21T05:29:17;95103.03;;;7.37;100.00
8298;BME280;4187;42.778;23.242;2023-03-21T05:31:44;95022.84;;;7.03;100.00
8298;BME280;4187;42.778;23.242;2023-03-21T05:34:12;95091.34;;;7.51;100.00
8298;BME280;4187;42.778;23.242;2023-03-21T05:36:39;95093.06;;;7.61;100.00
8298;BME280;4187;42.778;23.242;2023-03-21T05:39:07;95097.50;;;7.70;100.00
8298;BME280;4187;42.778;23.242;2023-03-21T05:41:34;95107.91;;;7.72;100.00
8298;BME280;4187;42.778;23.242;2023-03-21T05:44:01;95111.66;;;7.79;100.00
8298;BME280;4187;42.778;23.242;2023-03-21T05:46:28;95103.81;;;7.89;100.00
8298;BME280;4187;42.778;23.242;2023-03-21T05:48:54;95104.41;;;8.02;100.00
8298;BME280;4187;42.778;23.242;2023-03-21T05:51:21;95101.00;;;8.11;100.00
8298;BME280;4187;42.778;23.242;2023-03-21T05:53:48;95092.00;;;8.13;100.00
8298;BME280;4187;42.778;23.242;2023-03-21T05:56:17;95096.88;;;8.27;100.00
8298;BME280;4187;42.778;23.242;2023-03-21T05:58:44;95093.19;;;8.39;100.00
8298;BME280;4187;42.778;23.242;2023-03-21T06:01:12;95095.28;;;8.46;100.00
8298;BME280;4187;42.778;23.242;2023-03-21T06:03:39;95097.50;;;8.60;100.00
8298;BME280;4187;42.778;23.242;2023-03-21T06:06:07;95096.41;;;8.72;100.00
8298;BME280;4187;42.778;23.242;2023-03-21T06:08:33;95095.84;;;8.87;100.00
8298;BME280;4187;42.778;23.242;2023-03-21T06:11:00;95101.66;;;9.00;100.00
8298;BME280;4187;42.778;23.242;2023-03-21T06:13:28;95102.47;;;9.20;100.00
8298;BME280;4187;42.778;23.242;2023-03-21T06:15:57;95101.47;;;9.40;100.00
8298;BME280;4187;42.778;23.242;2023-03-21T06:18:24;95089.22;;;9.58;100.00
8298;BME280;4187;42.778;23.242;2023-03-21T06:20:50;95083.91;;;9.78;100.00
8298;BME280;4187;42.778;23.242;2023-03-21T06:23:18;95090.06;;;9.96;100.00
8298;BME280;4187;42.778;23.242;2023-03-21T06:25:46;95077.06;;;10.12;100.00
8298;BME280;4187;42.778;23.242;2023-03-21T06:28:13;95090.91;;;10.24;100.00
8298;BME280;4187;42.778;23.242;2023-03-21T06:30:42;95076.03;;;10.32;100.00
8298;BME280;4187;42.778;23.242;2023-03-21T06:33:08;95074.69;;;10.46;100.00
8298;BME280;4187;42.778;23.242;2023-03-21T06:35:35;95081.09;;;10.61;99.53
8298;BME280;4187;42.778;23.242;2023-03-21T06:38:02;95082.22;;;10.76;100.00
8298;BME280;4187;42.778;23.242;2023-03-21T06:40:29;95092.44;;;10.89;99.78
8298;BME280;4187;42.778;23.242;2023-03-21T06:42:56;95088.34;;;10.94;99.76
8298;BME280;4187;42.778;23.242;2023-03-21T06:45:22;95100.25;;;10.98;98.00
8298;BME280;4187;42.778;23.242;2023-03-21T06:47:51;95101.31;;;11.05;96.12
8298;BME280;4187;42.778;23.242;2023-03-21T06:50:18;95101.16;;;11.07;94.05
8298;BME280;4187;42.778;23.242;2023-03-21T06:52:45;95102.25;;;11.22;93.43
8298;BME280;4187;42.778;23.242;2023-03-21T06:55:12;95090.44;;;11.26;93.92
8298;BME280;4187;42.778;23.242;2023-03-21T06:57:38;95090.84;;;11.39;92.67
8298;BME280;4187;42.778;23.242;2023-03-21T07:00:07;95094.31;;;11.39;91.00
8298;BME280;4187;42.778;23.242;2023-03-21T07:02:34;95105.00;;;11.56;91.07
8298;BME280;4187;42.778;23.242;2023-03-21T07:05:03;95095.16;;;11.66;90.32
8298;BME280;4187;42.778;23.242;2023-03-21T07:07:30;95096.59;;;11.78;89.03
8298;BME280;4187;42.778;23.242;2023-03-21T07:09:56;95091.72;;;11.91;88.39
8298;BME280;4187;42.778;23.242;2023-03-21T07:12:23;95080.28;;;11.90;85.73
8298;BME280;4187;42.778;23.242;2023-03-21T07:14:50;95077.66;;;11.90;85.86
8298;BME280;4187;42.778;23.242;2023-03-21T07:17:17;95103.03;;;12.09;87.09
8298;BME280;4187;42.778;23.242;2023-03-21T07:19:44;95102.94;;;12.19;86.53
8298;BME280;4187;42.778;23.242;2023-03-21T07:22:12;95103.31;;;12.32;86.54
8298;BME280;4187;42.778;23.242;2023-03-21T07:24:39;95096.66;;;12.28;86.64
8298;BME280;4187;42.778;23.242;2023-03-21T07:27:06;95099.22;;;12.45;93.33
8298;BME280;4187;42.778;23.242;2023-03-21T07:29:33;95048.03;;;12.21;85.55
8298;BME280;4187;42.778;23.242;2023-03-21T07:32:00;95105.56;;;12.69;81.30
8298;BME280;4187;42.778;23.242;2023-03-21T07:34:27;95103.94;;;12.76;81.96
8298;BME280;4187;42.778;23.242;2023-03-21T07:36:58;95098.66;;;12.76;83.32
8298;BME280;4187;42.778;23.242;2023-03-21T07:39:27;95105.78;;;12.83;81.30
8298;BME280;4187;42.778;23.242;2023-03-21T07:41:54;95077.09;;;12.71;78.17
8298;BME280;4187;42.778;23.242;2023-03-21T07:44:21;95110.44;;;12.97;79.26
8298;BME280;4187;42.778;23.242;2023-03-21T07:46:48;95107.81;;;13.05;80.19
8298;BME280;4187;42.778;23.242;2023-03-21T07:49:15;95105.19;;;13.13;76.28
8298;BME280;4187;42.778;23.242;2023-03-21T07:51:42;95111.81;;;13.26;76.68
8298;BME280;4187;42.778;23.242;2023-03-21T07:54:08;95109.81;;;13.28;75.93
8298;BME280;4187;42.778;23.242;2023-03-21T07:56:37;95113.47;;;13.35;76.65
8298;BME280;4187;42.778;23.242;2023-03-21T07:59:03;95116.28;;;13.41;78.10
8298;BME280;4187;42.778;23.242;2023-03-21T08:01:31;95104.03;;;13.56;75.14
8298;BME280;4187;42.778;23.242;2023-03-21T08:03:58;95107.50;;;13.73;74.72
8298;BME280;4187;42.778;23.242;2023-03-21T08:06:26;95101.81;;;13.84;74.56
8298;BME280;4187;42.778;23.242;2023-03-21T08:08:53;95101.63;;;14.02;74.96
8298;BME280;4187;42.778;23.242;2023-03-21T08:11:20;95088.81;;;14.13;74.16
8298;BME280;4187;42.778;23.242;2023-03-21T08:13:49;95085.81;;;14.24;72.27
8298;BME280;4187;42.778;23.242;2023-03-21T08:16:16;95097.03;;;14.43;72.28
8298;BME280;4187;42.778;23.242;2023-03-21T08:18:43;95103.25;;;14.58;71.99
8298;BME280;4187;42.778;23.242;2023-03-21T08:21:10;95078.53;;;14.57;70.78
8298;BME280;4187;42.778;23.242;2023-03-21T08:23:37;95100.75;;;14.64;69.04
8298;BME280;4187;42.778;23.242;2023-03-21T08:26:04;95097.78;;;14.59;71.32
8298;BME280;4187;42.778;23.242;2023-03-21T08:28:32;95104.19;;;14.73;69.79
8298;BME280;4187;42.778;23.242;2023-03-21T08:31:00;95105.28;;;14.86;66.59
8298;BME280;4187;42.778;23.242;2023-03-21T08:33:28;95094.75;;;14.93;68.08
8298;BME280;4187;42.778;23.242;2023-03-21T08:35:58;95091.59;;;14.98;68.27
8298;BME280;4187;42.778;23.242;2023-03-21T08:38:24;95094.56;;;15.03;67.55
8298;BME280;4187;42.778;23.242;2023-03-21T08:40:54;95093.38;;;15.05;68.38
8298;BME280;4187;42.778;23.242;2023-03-21T08:43:21;95092.19;;;15.08;67.87
8298;BME280;4187;42.778;23.242;2023-03-21T08:45:48;95089.63;;;15.14;68.21
8298;BME280;4187;42.778;23.242;2023-03-21T08:48:16;95085.94;;;15.23;67.57
8298;BME280;4187;42.778;23.242;2023-03-21T08:50:43;95089.50;;;15.30;66.46
8298;BME280;4187;42.778;23.242;2023-03-21T08:53:10;95092.16;;;15.30;65.98
8298;BME280;4187;42.778;23.242;2023-03-21T08:55:37;95084.81;;;15.40;65.25
8298;BME280;4187;42.778;23.242;2023-03-21T08:58:04;95084.03;;;15.54;63.83
8298;BME280;4187;42.778;23.242;2023-03-21T09:00:31;95076.81;;;15.63;62.91
8298;BME280;4187;42.778;23.242;2023-03-21T09:02:58;95015.97;;;15.23;61.14
8298;BME280;4187;42.778;23.242;2023-03-21T09:05:27;95080.94;;;15.66;62.52
8298;BME280;4187;42.778;23.242;2023-03-21T09:07:54;95079.94;;;15.67;62.51
8298;BME280;4187;42.778;23.242;2023-03-21T09:10:22;95074.53;;;15.75;61.72
8298;BME280;4187;42.778;23.242;2023-03-21T09:12:50;95071.88;;;15.75;61.45
8298;BME280;4187;42.778;23.242;2023-03-21T09:15:17;95069.34;;;15.81;61.42
8298;BME280;4187;42.778;23.242;2023-03-21T09:17:46;95034.34;;;15.70;60.19
8298;BME280;4187;42.778;23.242;2023-03-21T09:20:17;95059.31;;;15.98;59.60
8298;BME280;4187;42.778;23.242;2023-03-21T09:22:48;95055.28;;;16.02;58.42
8298;BME280;4187;42.778;23.242;2023-03-21T09:25:17;95053.09;;;16.05;58.30
8298;BME280;4187;42.778;23.242;2023-03-21T09:27:45;95046.50;;;16.16;58.63
8298;BME280;4187;42.778;23.242;2023-03-21T09:30:14;95032.72;;;16.12;55.90
8298;BME280;4187;42.778;23.242;2023-03-21T09:32:41;95049.78;;;16.33;54.58
8298;BME280;4187;42.778;23.242;2023-03-21T09:35:11;95041.19;;;16.52;64.34
8298;BME280;4187;42.778;23.242;2023-03-21T09:37:40;95040.34;;;16.81;61.50
8298;BME280;4187;42.778;23.242;2023-03-21T09:40:15;95045.94;;;17.07;62.67
8298;BME280;4187;42.778;23.242;2023-03-21T09:42:52;95032.72;;;17.20;58.22
8298;BME280;4187;42.778;23.242;2023-03-21T09:45:30;95030.84;;;17.35;53.01
8298;BME280;4187;42.778;23.242;2023-03-21T09:48:04;95030.25;;;17.40;50.93
8298;BME280;4187;42.778;23.242;2023-03-21T09:50:36;95037.63;;;17.38;49.92
8298;BME280;4187;42.778;23.242;2023-03-21T09:53:09;95038.03;;;17.41;49.56
8298;BME280;4187;42.778;23.242;2023-03-21T09:55:39;95021.06;;;17.21;48.95
8298;BME280;4187;42.778;23.242;2023-03-21T09:58:23;95022.72;;;17.22;49.94
8298;BME280;4187;42.778;23.242;2023-03-21T10:00:54;95020.06;;;17.22;51.90
8298;BME280;4187;42.778;23.242;2023-03-21T10:03:30;95026.50;;;17.34;51.32
8298;BME280;4187;42.778;23.242;2023-03-21T10:06:03;95003.13;;;17.36;50.94
8298;BME280;4187;42.778;23.242;2023-03-21T10:08:34;95010.69;;;17.54;48.50
8298;BME280;4187;42.778;23.242;2023-03-21T10:11:10;95003.38;;;17.62;49.15
8298;BME280;4187;42.778;23.242;2023-03-21T10:13:41;94998.13;;;17.75;49.77
8298;BME280;4187;42.778;23.242;2023-03-21T10:16:11;95009.75;;;17.96;50.11
8298;BME280;4187;42.778;23.242;2023-03-21T10:18:40;95006.91;;;18.04;47.00
8298;BME280;4187;42.778;23.242;2023-03-21T10:21:14;95023.75;;;18.04;47.80
8298;BME280;4187;42.778;23.242;2023-03-21T10:23:43;95009.56;;;17.97;47.27
8298;BME280;4187;42.778;23.242;2023-03-21T10:26:12;95008.41;;;18.13;46.96
8298;BME280;4187;42.778;23.242;2023-03-21T10:28:41;95013.25;;;18.37;46.67
8298;BME280;4187;42.778;23.242;2023-03-21T10:31:10;95016.22;;;18.55;47.49
8298;BME280;4187;42.778;23.242;2023-03-21T10:33:42;95008.25;;;18.68;44.75
8298;BME280;4187;42.778;23.242;2023-03-21T10:36:13;95013.06;;;18.99;44.51
8298;BME280;4187;42.778;23.242;2023-03-21T10:38:44;95003.28;;;19.39;45.10
8298;BME280;4187;42.778;23.242;2023-03-21T10:41:14;95006.78;;;19.65;43.07
8298;BME280;4187;42.778;23.242;2023-03-21T10:43:42;94942.78;;;19.38;41.38
8298;BME280;4187;42.778;23.242;2023-03-21T10:46:12;95009.44;;;19.65;41.68
8298;BME280;4187;42.778;23.242;2023-03-21T10:48:41;94990.53;;;19.54;41.75
8298;BME280;4187;42.778;23.242;2023-03-21T10:51:16;95004.94;;;19.73;43.02
8298;BME280;4187;42.778;23.242;2023-03-21T10:53:49;95005.31;;;19.89;42.48
8298;BME280;4187;42.778;23.242;2023-03-21T10:56:22;95006.09;;;20.09;42.97
8298;BME280;4187;42.778;23.242;2023-03-21T10:58:49;94982.59;;;20.11;41.59
8298;BME280;4187;42.778;23.242;2023-03-21T11:01:24;94997.38;;;20.40;46.30
8298;BME280;4187;42.778;23.242;2023-03-21T11:03:56;95008.06;;;20.47;40.73
8298;BME280;4187;42.778;23.242;2023-03-21T11:06:27;95000.47;;;20.44;39.84
8298;BME280;4187;42.778;23.242;2023-03-21T11:08:58;94997.75;;;20.50;39.79
8298;BME280;4187;42.778;23.242;2023-03-21T11:11:32;94997.94;;;20.55;39.15
8298;BME280;4187;42.778;23.242;2023-03-21T11:14:01;94987.03;;;20.50;39.76
8298;BME280;4187;42.778;23.242;2023-03-21T11:16:36;94990.66;;;20.69;40.28
8298;BME280;4187;42.778;23.242;2023-03-21T11:19:13;94982.72;;;20.87;40.50
8298;BME280;4187;42.778;23.242;2023-03-21T11:21:41;94980.78;;;21.07;39.13
8298;BME280;4187;42.778;23.242;2023-03-21T11:24:11;94980.66;;;21.27;38.41
8298;BME280;4187;42.778;23.242;2023-03-21T11:26:42;94973.75;;;21.37;37.17
8298;BME280;4187;42.778;23.242;2023-03-21T11:29:20;94968.38;;;21.37;38.15
8298;BME280;4187;42.778;23.242;2023-03-21T11:31:50;94968.88;;;21.53;37.65
8298;BME280;4187;42.778;23.242;2023-03-21T11:34:25;94935.03;;;21.52;37.06
8298;BME280;4187;42.778;23.242;2023-03-21T11:36:57;94954.41;;;21.78;38.72
8298;BME280;4187;42.778;23.242;2023-03-21T11:39:31;94948.84;;;21.98;37.83
8298;BME280;4187;42.778;23.242;2023-03-21T11:42:00;94917.13;;;21.88;37.25
8298;BME280;4187;42.778;23.242;2023-03-21T11:44:29;94949.22;;;22.20;36.75
8298;BME280;4187;42.778;23.242;2023-03-21T11:46:57;94941.38;;;22.18;36.50
8298;BME280;4187;42.778;23.242;2023-03-21T11:49:24;94940.34;;;22.19;37.56
8298;BME280;4187;42.778;23.242;2023-03-21T11:57:49;94932.28;;;22.19;36.48
8298;BME280;4187;42.778;23.242;2023-03-21T12:00:25;94930.19;;;22.21;35.88
8298;BME280;4187;42.778;23.242;2023-03-21T12:03:04;94927.66;;;22.08;36.23
8298;BME280;4187;42.778;23.242;2023-03-21T12:05:34;94929.06;;;22.11;36.11
8298;BME280;4187;42.778;23.242;2023-03-21T12:08:06;94916.75;;;22.21;36.37
8298;BME280;4187;42.778;23.242;2023-03-21T12:10:43;94911.13;;;22.23;35.16
8298;BME280;4187;42.778;23.242;2023-03-21T12:13:23;94915.34;;;22.19;36.32
8298;BME280;4187;42.778;23.242;2023-03-21T12:15:57;94905.75;;;22.23;36.14
8298;BME280;4187;42.778;23.242;2023-03-21T12:18:41;94910.53;;;22.21;35.34
8298;BME280;4187;42.778;23.242;2023-03-21T12:21:16;94902.25;;;22.22;35.03
8298;BME280;4187;42.778;23.242;2023-03-21T12:23:53;94900.16;;;22.06;34.21
8298;BME280;4187;42.778;23.242;2023-03-21T12:26:28;94880.81;;;21.79;34.01
8298;BME280;4187;42.778;23.242;2023-03-21T12:29:09;94900.28;;;21.75;34.47
8298;BME280;4187;42.778;23.242;2023-03-21T12:31:50;94896.19;;;21.72;33.86
8298;BME280;4187;42.778;23.242;2023-03-21T12:34:33;94896.72;;;21.63;34.34
8298;BME280;4187;42.778;23.242;2023-03-21T12:37:10;94884.75;;;21.59;32.96
8298;BME280;4187;42.778;23.242;2023-03-21T12:39:45;94880.84;;;21.55;32.88
8298;BME280;4187;42.778;23.242;2023-03-21T12:42:33;94881.03;;;21.60;33.06
8298;BME280;4187;42.778;23.242;2023-03-21T12:45:12;94875.38;;;21.68;33.65
8298;BME280;4187;42.778;23.242;2023-03-21T12:47:44;94879.53;;;21.64;34.19
8298;BME280;4187;42.778;23.242;2023-03-21T12:50:17;94871.09;;;21.60;34.22
8298;BME280;4187;42.778;23.242;2023-03-21T12:52:49;94867.00;;;21.58;33.93
8298;BME280;4187;42.778;23.242;2023-03-21T12:55:22;94867.28;;;21.50;33.60
8298;BME280;4187;42.778;23.242;2023-03-21T12:57:53;94866.91;;;21.46;32.49
8298;BME280;4187;42.778;23.242;2023-03-21T13:00:26;94858.91;;;21.39;32.22
8298;BME280;4187;42.778;23.242;2023-03-21T13:02:57;94862.72;;;21.32;32.68
8298;BME280;4187;42.778;23.242;2023-03-21T13:05:28;94857.25;;;21.38;33.39
8298;BME280;4187;42.778;23.242;2023-03-21T13:08:00;94854.50;;;21.27;33.60
8298;BME280;4187;42.778;23.242;2023-03-21T13:10:29;94851.34;;;21.05;33.79
8298;BME280;4187;42.778;23.242;2023-03-21T13:13:03;94847.72;;;20.93;34.60
8298;BME280;4187;42.778;23.242;2023-03-21T13:15:48;94846.34;;;20.59;35.37
8298;BME280;4187;42.778;23.242;2023-03-21T13:18:41;94839.91;;;20.22;35.47
8298;BME280;4187;42.778;23.242;2023-03-21T13:21:14;94838.56;;;20.13;35.98
8298;BME280;4187;42.778;23.242;2023-03-21T13:23:55;94832.13;;;20.21;36.12
8298;BME280;4187;42.778;23.242;2023-03-21T13:26:31;94832.56;;;20.11;35.89
8298;BME280;4187;42.778;23.242;2023-03-21T13:28:59;94838.81;;;19.99;36.37
8298;BME280;4187;42.778;23.242;2023-03-21T13:31:27;94833.53;;;19.86;36.50
8298;BME280;4187;42.778;23.242;2023-03-21T13:33:57;94772.50;;;19.37;36.36